Wetterdaten: Woche 26.10.15 - 01.11.15 (KW44)
Datum Zeit Temp. Aussen Temp. o. S. +5cm Feuchte Auss BlattFeu 1 Luftdruck Regen Sonnenschein Regendauer Solar Windben Empfang
26.10.2015 00:00 8,9 C 8,6 C 7,6 C 95 % 14 lf 1023,5 hPa 0,0 l/m 0,00 h 0,00 h 0 W/m 2,7 km/h (1 Bft) 93,72 %
26.10.2015 01:00 8,4 C 6,9 C 6,1 C 95 % 15 lf 1023,2 hPa 0,0 l/m 0,00 h 0,00 h 0 W/m 0,8 km/h (0 Bft) 96,58 %
26.10.2015 02:00 7,3 C 6,0 C 5,2 C 94 % 15 lf 1022,4 hPa 0,0 l/m 0,00 h 0,00 h 0 W/m 1,7 km/h (1 Bft) 96,79 %
26.10.2015 03:00 6,6 C 5,4 C 4,7 C 95 % 15 lf 1022,0 hPa 0,0 l/m 0,00 h 0,00 h 0 W/m 0,8 km/h (0 Bft) 97,22 %
26.10.2015 04:00 5,9 C 4,6 C 4,1 C 94 % 15 lf 1021,5 hPa 0,0 l/m 0,00 h 0,00 h 0 W/m 2,0 km/h (1 Bft) 94,37 %
26.10.2015 05:00 5,3 C 4,3 C 3,9 C 95 % 15 lf 1021,3 hPa 0,0 l/m 0,00 h 0,00 h 0 W/m 2,2 km/h (1 Bft) 96,37 %
26.10.2015 06:00 5,6 C 6,4 C 4,8 C 96 % 15 lf 1021,0 hPa 0,0 l/m 0,00 h 0,00 h 0 W/m 7,1 km/h (2 Bft) 96,98 %
26.10.2015 07:00 7,3 C 7,6 C 6,0 C 97 % 15 lf 1021,0 hPa 0,0 l/m 0,00 h 0,00 h 19 W/m 6,9 km/h (2 Bft) 96,65 %
26.10.2015 08:00 8,0 C 8,7 C 7,2 C 98 % 15 lf 1020,9 hPa 0,0 l/m 0,73 h 0,00 h 90 W/m 5,9 km/h (2 Bft) 93,81 %
26.10.2015 09:00 9,5 C 13,1 C 9,6 C 98 % 15 lf 1020,7 hPa 0,0 l/m 0,90 h 0,00 h 169 W/m 7,9 km/h (2 Bft) 97,80 %
26.10.2015 10:00 11,7 C 17,8 C 11,7 C 98 % 10 lf 1020,3 hPa 0,0 l/m 1,00 h 0,00 h 354 W/m 19,5 km/h (3 Bft) 95,33 %
26.10.2015 11:00 13,9 C 18,3 C 13,8 C 86 % 0 lf 1020,0 hPa 0,0 l/m 1,00 h 0,00 h 370 W/m 21,3 km/h (4 Bft) 95,64 %
26.10.2015 12:00 14,7 C 19,4 C 13,3 C 81 % 0 lf 1019,2 hPa 0,0 l/m 0,83 h 0,00 h 366 W/m 23,1 km/h (4 Bft) 97,56 %
26.10.2015 13:00 15,9 C 20,2 C 14,1 C 77 % 0 lf 1018,5 hPa 0,0 l/m 1,00 h 0,00 h 374 W/m 21,2 km/h (4 Bft) 94,52 %
26.10.2015 14:00 16,5 C 21,0 C 14,5 C 76 % 0 lf 1017,8 hPa 0,0 l/m 1,00 h 0,00 h 302 W/m 16,4 km/h (3 Bft) 97,51 %
26.10.2015 15:00 16,6 C 18,7 C 14,3 C 75 % 0 lf 1017,4 hPa 0,0 l/m 1,00 h 0,00 h 182 W/m 15,4 km/h (3 Bft) 95,66 %
26.10.2015 16:00 15,7 C 15,4 C 12,9 C 79 % 0 lf 1017,0 hPa 0,0 l/m 0,40 h 0,00 h 52 W/m 9,3 km/h (2 Bft) 94,94 %
26.10.2015 17:00 14,4 C 13,6 C 11,2 C 81 % 0 lf 1016,9 hPa 0,0 l/m 0,13 h 0,00 h 12 W/m 9,9 km/h (2 Bft) 97,44 %
26.10.2015 18:00 12,9 C 11,0 C 8,9 C 83 % 0 lf 1016,9 hPa 0,0 l/m 0,00 h 0,00 h 0 W/m 4,9 km/h (1 Bft) 94,95 %
26.10.2015 19:00 11,2 C 10,3 C 8,2 C 87 % 1 lf 1016,8 hPa 0,0 l/m 0,00 h 0,00 h 0 W/m 8,4 km/h (2 Bft) 97,29 %
26.10.2015 20:00 10,9 C 11,0 C 8,9 C 91 % 1 lf 1016,7 hPa 0,0 l/m 0,00 h 0,00 h 0 W/m 11,8 km/h (2 Bft) 96,23 %
26.10.2015 21:00 10,8 C 10,4 C 8,7 C 91 % 1 lf 1016,6 hPa 0,0 l/m 0,00 h 0,00 h 0 W/m 11,0 km/h (2 Bft) 94,52 %
26.10.2015 22:00 10,1 C 9,5 C 7,5 C 91 % 1 lf 1016,5 hPa 0,0 l/m 0,00 h 0,00 h 0 W/m 7,7 km/h (2 Bft) 97,02 %
26.10.2015 23:00 9,5 C 9,4 C 7,6 C 93 % 1 lf 1016,4 hPa 0,0 l/m 0,00 h 0,00 h 0 W/m 12,8 km/h (3 Bft) 98,08 %
27.10.2015 00:00 9,3 C 9,0 C 7,4 C 94 % 1 lf 1016,4 hPa 0,0 l/m 0,00 h 0,00 h 0 W/m 9,0 km/h (2 Bft) 92,78 %
27.10.2015 01:00 8,8 C 8,5 C 7,1 C 94 % 2 lf 1016,3 hPa 0,0 l/m 0,00 h 0,00 h 0 W/m 8,2 km/h (2 Bft) 96,72 %
27.10.2015 02:00 8,5 C 8,5 C 6,9 C 95 % 2 lf 1016,0 hPa 0,0 l/m 0,00 h 0,00 h 0 W/m 9,4 km/h (2 Bft) 97,93 %
27.10.2015 03:00 8,5 C 8,5 C 7,1 C 95 % 1 lf 1015,7 hPa 0,0 l/m 0,00 h 0,00 h 0 W/m 14,7 km/h (3 Bft) 94,63 %
27.10.2015 04:00 8,4 C 8,3 C 7,0 C 95 % 2 lf 1015,4 hPa 0,0 l/m 0,00 h 0,00 h 0 W/m 14,5 km/h (3 Bft) 96,58 %
27.10.2015 05:00 8,1 C 7,9 C 6,7 C 96 % 2 lf 1015,5 hPa 0,0 l/m 0,00 h 0,00 h 0 W/m 12,2 km/h (2 Bft) 96,15 %
27.10.2015 06:00 8,0 C 8,1 C 6,7 C 96 % 2 lf 1015,3 hPa 0,0 l/m 0,00 h 0,00 h 0 W/m 14,7 km/h (3 Bft) 96,17 %
27.10.2015 07:00 7,8 C 7,9 C 6,6 C 96 % 2 lf 1015,4 hPa 0,2 l/m 0,10 h 0,00 h 18 W/m 16,2 km/h (3 Bft) 97,93 %
27.10.2015 08:00 8,3 C 9,2 C 7,6 C 97 % 1 lf 1015,6 hPa 0,0 l/m 1,00 h 0,00 h 107 W/m 19,9 km/h (4 Bft) 95,23 %
27.10.2015 09:00 10,1 C 15,6 C 10,0 C 96 % 0 lf 1015,6 hPa 0,0 l/m 1,00 h 0,00 h 242 W/m 21,0 km/h (4 Bft) 94,32 %
27.10.2015 10:00 12,4 C 18,2 C 10,9 C 88 % 0 lf 1015,5 hPa 0,0 l/m 1,00 h 0,00 h 345 W/m 21,5 km/h (4 Bft) 98,78 %
27.10.2015 11:00 14,5 C 20,6 C 13,9 C 82 % 0 lf 1015,2 hPa 0,0 l/m 1,00 h 0,00 h 403 W/m 19,2 km/h (3 Bft) 96,23 %
27.10.2015 12:00 16,0 C 22,2 C 14,0 C 78 % 0 lf 1014,8 hPa 0,0 l/m 0,97 h 0,00 h 412 W/m 18,2 km/h (3 Bft) 95,10 %
27.10.2015 13:00 16,8 C 21,7 C 14,4 C 75 % 0 lf 1014,4 hPa 0,0 l/m 1,00 h 0,00 h 374 W/m 18,3 km/h (3 Bft) 97,09 %
27.10.2015 14:00 17,3 C 22,2 C 14,5 C 73 % 0 lf 1014,0 hPa 0,0 l/m 1,00 h 0,00 h 291 W/m 18,0 km/h (3 Bft) 96,93 %
27.10.2015 15:00 16,7 C 18,3 C 14,1 C 75 % 0 lf 1013,6 hPa 0,0 l/m 1,00 h 0,00 h 155 W/m 15,3 km/h (3 Bft) 97,43 %
27.10.2015 16:00 15,3 C 14,9 C 12,7 C 79 % 0 lf 1013,4 hPa 0,0 l/m 0,03 h 0,00 h 36 W/m 15,2 km/h (3 Bft) 94,11 %
27.10.2015 17:00 13,9 C 13,2 C 11,3 C 83 % 0 lf 1013,3 hPa 0,0 l/m 0,00 h 0,00 h 8 W/m 13,7 km/h (3 Bft) 96,16 %
27.10.2015 18:00 12,7 C 12,3 C 10,6 C 86 % 0 lf 1013,3 hPa 0,0 l/m 0,00 h 0,00 h 0 W/m 15,7 km/h (3 Bft) 98,60 %
27.10.2015 19:00 11,8 C 11,5 C 10,0 C 89 % 0 lf 1013,2 hPa 0,0 l/m 0,00 h 0,00 h 0 W/m 17,3 km/h (3 Bft) 93,31 %
27.10.2015 20:00 10,9 C 10,7 C 9,1 C 91 % 0 lf 1013,2 hPa 0,0 l/m 0,00 h 0,00 h 0 W/m 16,1 km/h (3 Bft) 96,97 %
27.10.2015 21:00 10,3 C 10,0 C 8,7 C 92 % 0 lf 1013,1 hPa 0,0 l/m 0,00 h 0,00 h 0 W/m 13,7 km/h (3 Bft) 98,25 %
27.10.2015 22:00 9,6 C 9,4 C 8,0 C 93 % 1 lf 1013,0 hPa 0,0 l/m 0,00 h 0,00 h 0 W/m 18,1 km/h (3 Bft) 95,80 %
27.10.2015 23:00 8,9 C 8,7 C 7,5 C 94 % 1 lf 1012,7 hPa 0,0 l/m 0,00 h 0,00 h 0 W/m 22,2 km/h (4 Bft) 95,09 %
28.10.2015 00:00 8,4 C 8,3 C 7,1 C 95 % 1 lf 1012,6 hPa 0,0 l/m 0,00 h 0,00 h 0 W/m 18,8 km/h (3 Bft) 96,04 %
28.10.2015 01:00 8,1 C 7,9 C 6,7 C 95 % 1 lf 1012,2 hPa 0,0 l/m 0,00 h 0,00 h 0 W/m 18,6 km/h (3 Bft) 94,87 %
28.10.2015 02:00 7,9 C 7,8 C 6,7 C 96 % 1 lf 1011,7 hPa 0,0 l/m 0,00 h 0,00 h 0 W/m 19,2 km/h (3 Bft) 98,15 %
28.10.2015 03:00 7,7 C 7,8 C 6,5 C 96 % 1 lf 1011,3 hPa 0,0 l/m 0,00 h 0,00 h 0 W/m 19,3 km/h (3 Bft) 95,38 %
28.10.2015 04:00 7,5 C 7,5 C 6,2 C 96 % 1 lf 1010,8 hPa 0,0 l/m 0,00 h 0,00 h 0 W/m 19,9 km/h (4 Bft) 95,05 %
28.10.2015 05:00 7,3 C 7,5 C 6,3 C 96 % 1 lf 1010,5 hPa 0,0 l/m 0,00 h 0,00 h 0 W/m 20,1 km/h (4 Bft) 97,21 %
28.10.2015 06:00 7,6 C 8,0 C 6,7 C 96 % 0 lf 1010,3 hPa 0,0 l/m 0,00 h 0,00 h 0 W/m 21,6 km/h (4 Bft) 97,02 %
28.10.2015 07:00 7,9 C 8,4 C 7,0 C 95 % 0 lf 1010,4 hPa 0,0 l/m 0,23 h 0,00 h 19 W/m 19,0 km/h (3 Bft) 94,31 %
28.10.2015 08:00 8,5 C 9,3 C 8,1 C 95 % 0 lf 1010,6 hPa 0,0 l/m 0,67 h 0,00 h 95 W/m 25,7 km/h (4 Bft) 96,44 %
28.10.2015 09:00 9,4 C 10,6 C 8,9 C 92 % 0 lf 1010,2 hPa 0,0 l/m 0,23 h 0,00 h 121 W/m 27,5 km/h (4 Bft) 96,58 %
28.10.2015 10:00 10,1 C 11,3 C 9,8 C 90 % 0 lf 1010,3 hPa 0,0 l/m 0,27 h 0,00 h 157 W/m 24,7 km/h (4 Bft) 96,37 %
28.10.2015 11:00 10,9 C 12,3 C 10,7 C 88 % 0 lf 1009,8 hPa 0,0 l/m 0,30 h 0,00 h 194 W/m 22,8 km/h (4 Bft) 95,51 %
28.10.2015 12:00 11,7 C 13,0 C 11,5 C 86 % 0 lf 1009,7 hPa 0,0 l/m 0,40 h 0,00 h 194 W/m 23,7 km/h (4 Bft) 95,91 %
28.10.2015 13:00 11,4 C 11,7 C 10,5 C 86 % 0 lf 1009,7 hPa 0,0 l/m 0,00 h 0,00 h 50 W/m 20,4 km/h (4 Bft) 96,09 %
28.10.2015 14:00 11,7 C 12,7 C 11,3 C 87 % 0 lf 1009,4 hPa 0,0 l/m 0,07 h 0,00 h 118 W/m 19,3 km/h (3 Bft) 97,86 %
28.10.2015 15:00 12,3 C 12,6 C 11,3 C 85 % 0 lf 1009,3 hPa 0,0 l/m 0,10 h 0,00 h 55 W/m 17,3 km/h (3 Bft) 93,73 %
28.10.2015 16:00 12,1 C 12,2 C 10,8 C 86 % 0 lf 1009,3 hPa 0,0 l/m 0,20 h 0,00 h 36 W/m 16,3 km/h (3 Bft) 97,15 %
28.10.2015 17:00 11,7 C 11,7 C 10,5 C 88 % 0 lf 1009,5 hPa 0,0 l/m 0,00 h 0,00 h 8 W/m 16,4 km/h (3 Bft) 97,22 %
28.10.2015 18:00 11,4 C 11,7 C 10,0 C 88 % 0 lf 1010,0 hPa 0,0 l/m 0,00 h 0,00 h 0 W/m 17,0 km/h (3 Bft) 94,63 %
28.10.2015 19:00 11,2 C 11,1 C 10,0 C 90 % 0 lf 1010,4 hPa 0,0 l/m 0,00 h 0,00 h 0 W/m 14,0 km/h (3 Bft) 95,26 %
28.10.2015 20:00 10,9 C 11,1 C 9,4 C 91 % 0 lf 1010,7 hPa 0,0 l/m 0,00 h 0,00 h 0 W/m 8,9 km/h (2 Bft) 98,16 %
28.10.2015 21:00 10,8 C 11,1 C 9,9 C 92 % 0 lf 1011,3 hPa 0,0 l/m 0,00 h 0,00 h 0 W/m 6,2 km/h (2 Bft) 94,64 %
28.10.2015 22:00 11,0 C 11,1 C 9,9 C 93 % 0 lf 1011,8 hPa 0,0 l/m 0,00 h 0,00 h 0 W/m 6,9 km/h (2 Bft) 95,81 %
28.10.2015 23:00 10,9 C 10,7 C 9,3 C 93 % 0 lf 1011,8 hPa 0,0 l/m 0,00 h 0,00 h 0 W/m 6,0 km/h (2 Bft) 96,87 %
29.10.2015 00:00 10,5 C 10,6 C 9,1 C 94 % 0 lf 1012,1 hPa 0,0 l/m 0,00 h 0,00 h 0 W/m 8,7 km/h (2 Bft) 94,79 %
29.10.2015 01:00 10,4 C 10,6 C 9,4 C 95 % 0 lf 1012,7 hPa 0,0 l/m 0,00 h 0,00 h 0 W/m 10,7 km/h (2 Bft) 98,01 %
29.10.2015 02:00 10,4 C 10,6 C 9,4 C 95 % 0 lf 1013,1 hPa 0,0 l/m 0,00 h 0,07 h 0 W/m 10,5 km/h (2 Bft) 94,87 %
29.10.2015 03:00 10,5 C 10,7 C 9,4 C 95 % 1 lf 1013,2 hPa 0,0 l/m 0,00 h 0,00 h 0 W/m 8,9 km/h (2 Bft) 94,73 %
29.10.2015 04:00 10,9 C 11,1 C 9,8 C 96 % 0 lf 1013,3 hPa 0,0 l/m 0,00 h 0,00 h 0 W/m 8,5 km/h (2 Bft) 96,88 %
29.10.2015 05:00 11,1 C 11,6 C 10,0 C 96 % 0 lf 1014,1 hPa 0,0 l/m 0,00 h 0,00 h 0 W/m 5,7 km/h (1 Bft) 97,44 %
29.10.2015 06:00 11,2 C 11,5 C 9,9 C 96 % 1 lf 1014,8 hPa 0,0 l/m 0,00 h 0,00 h 0 W/m 4,4 km/h (1 Bft) 93,59 %
29.10.2015 07:00 11,3 C 11,6 C 10,0 C 96 % 1 lf 1015,5 hPa 0,0 l/m 0,00 h 0,00 h 10 W/m 5,0 km/h (1 Bft) 96,86 %
29.10.2015 08:00 11,3 C 12,0 C 10,3 C 96 % 1 lf 1016,2 hPa 0,0 l/m 0,17 h 0,00 h 64 W/m 5,9 km/h (2 Bft) 96,23 %
29.10.2015 09:00 11,7 C 13,3 C 11,5 C 96 % 0 lf 1016,9 hPa 0,0 l/m 0,20 h 0,00 h 108 W/m 13,0 km/h (3 Bft) 95,87 %
29.10.2015 10:00 12,9 C 19,8 C 12,3 C 92 % 0 lf 1017,4 hPa 0,0 l/m 0,83 h 0,00 h 265 W/m 12,2 km/h (2 Bft) 95,30 %
29.10.2015 11:00 15,1 C 24,0 C 14,2 C 79 % 0 lf 1017,7 hPa 0,0 l/m 1,00 h 0,00 h 393 W/m 12,3 km/h (3 Bft) 97,36 %
29.10.2015 12:00 16,5 C 25,6 C 14,3 C 71 % 0 lf 1017,9 hPa 0,0 l/m 0,97 h 0,00 h 421 W/m 14,1 km/h (3 Bft) 94,32 %
29.10.2015 13:00 17,1 C 23,8 C 14,3 C 68 % 0 lf 1018,0 hPa 0,0 l/m 0,93 h 0,00 h 380 W/m 14,6 km/h (3 Bft) 96,65 %
29.10.2015 14:00 17,1 C 22,4 C 14,2 C 68 % 0 lf 1018,2 hPa 0,0 l/m 0,93 h 0,00 h 276 W/m 15,3 km/h (3 Bft) 97,22 %
29.10.2015 15:00 16,5 C 18,8 C 13,7 C 70 % 0 lf 1018,5 hPa 0,0 l/m 1,00 h 0,00 h 148 W/m 11,9 km/h (2 Bft) 96,80 %
29.10.2015 16:00 15,4 C 14,6 C 12,2 C 73 % 0 lf 1019,0 hPa 0,0 l/m 0,00 h 0,00 h 31 W/m 7,1 km/h (2 Bft) 95,01 %
29.10.2015 17:00 13,6 C 11,4 C 9,3 C 78 % 0 lf 1019,4 hPa 0,0 l/m 0,00 h 0,00 h 6 W/m 4,0 km/h (1 Bft) 96,30 %
29.10.2015 18:00 11,5 C 9,8 C 8,0 C 84 % 1 lf 1020,1 hPa 0,0 l/m 0,00 h 0,00 h 0 W/m 1,7 km/h (1 Bft) 95,50 %
29.10.2015 19:00 10,1 C 8,9 C 7,3 C 88 % 2 lf 1020,5 hPa 0,0 l/m 0,00 h 0,00 h 0 W/m 1,6 km/h (1 Bft) 96,29 %
29.10.2015 20:00 9,0 C 7,8 C 6,7 C 90 % 10 lf 1021,3 hPa 0,0 l/m 0,00 h 0,00 h 0 W/m 3,5 km/h (1 Bft) 95,45 %
29.10.2015 21:00 8,4 C 7,7 C 6,2 C 92 % 15 lf 1021,6 hPa 0,0 l/m 0,00 h 0,00 h 0 W/m 3,4 km/h (1 Bft) 98,58 %
29.10.2015 22:00 7,7 C 6,9 C 5,5 C 93 % 15 lf 1022,0 hPa 0,0 l/m 0,00 h 0,00 h 0 W/m 2,3 km/h (1 Bft) 93,59 %
29.10.2015 23:00 7,1 C 6,7 C 5,1 C 94 % 15 lf 1022,4 hPa 0,0 l/m 0,00 h 0,00 h 0 W/m 3,2 km/h (1 Bft) 95,52 %
30.10.2015 00:00 6,8 C 6,5 C 5,0 C 95 % 15 lf 1022,6 hPa 0,0 l/m 0,00 h 0,00 h 0 W/m 5,5 km/h (1 Bft) 96,96 %
30.10.2015 01:00 6,7 C 6,5 C 5,0 C 96 % 15 lf 1022,8 hPa 0,0 l/m 0,00 h 0,00 h 0 W/m 7,1 km/h (2 Bft) 97,44 %
30.10.2015 02:00 6,8 C 6,6 C 5,4 C 96 % 15 lf 1022,7 hPa 0,0 l/m 0,00 h 0,00 h 0 W/m 8,3 km/h (2 Bft) 94,31 %
30.10.2015 03:00 6,5 C 6,0 C 4,6 C 97 % 15 lf 1022,7 hPa 0,0 l/m 0,00 h 0,03 h 0 W/m 5,6 km/h (1 Bft) 95,73 %
30.10.2015 04:00 6,3 C 6,1 C 4,7 C 97 % 15 lf 1023,1 hPa 0,0 l/m 0,00 h 0,07 h 0 W/m 8,0 km/h (2 Bft) 97,79 %
30.10.2015 05:00 6,2 C 6,0 C 4,6 C 97 % 15 lf 1023,4 hPa 0,2 l/m 0,00 h 0,10 h 0 W/m 9,0 km/h (2 Bft) 96,44 %
30.10.2015 06:00 6,1 C 5,7 C 4,6 C 97 % 15 lf 1023,6 hPa 0,0 l/m 0,00 h 0,00 h 0 W/m 7,7 km/h (2 Bft) 94,62 %
30.10.2015 07:00 6,1 C 6,0 C 4,8 C 98 % 15 lf 1024,2 hPa 0,0 l/m 0,30 h 0,00 h 15 W/m 11,0 km/h (2 Bft) 96,30 %
30.10.2015 08:00 6,8 C 7,1 C 6,2 C 98 % 15 lf 1024,7 hPa 0,0 l/m 1,00 h 0,07 h 93 W/m 15,9 km/h (3 Bft) 96,58 %
30.10.2015 09:00 8,4 C 11,7 C 8,4 C 99 % 15 lf 1025,0 hPa 0,0 l/m 1,00 h 0,00 h 207 W/m 19,2 km/h (3 Bft) 96,14 %
30.10.2015 10:00 9,6 C 12,2 C 9,5 C 98 % 15 lf 1025,3 hPa 0,0 l/m 1,00 h 0,00 h 236 W/m 19,7 km/h (3 Bft) 95,65 %
30.10.2015 11:00 10,7 C 14,0 C 11,0 C 96 % 9 lf 1025,4 hPa 0,0 l/m 1,00 h 0,00 h 265 W/m 18,3 km/h (3 Bft) 97,72 %
30.10.2015 12:00 12,7 C 16,4 C 12,1 C 90 % 0 lf 1025,4 hPa 0,0 l/m 0,98 h 0,00 h 283 W/m 20,7 km/h (4 Bft) 95,66 %
30.10.2015 13:00 13,7 C 16,0 C 12,5 C 84 % 0 lf 1025,5 hPa 0,0 l/m 0,63 h 0,00 h 228 W/m 21,7 km/h (4 Bft) 95,24 %
30.10.2015 14:00 13,4 C 14,5 C 12,2 C 84 % 0 lf 1025,3 hPa 0,0 l/m 0,80 h 0,00 h 167 W/m 20,6 km/h (4 Bft) 96,94 %
30.10.2015 15:00 13,4 C 14,3 C 12,2 C 84 % 0 lf 1025,4 hPa 0,0 l/m 1,00 h 0,00 h 131 W/m 15,3 km/h (3 Bft) 97,44 %
30.10.2015 16:00 13,0 C 12,9 C 11,1 C 84 % 0 lf 1025,5 hPa 0,0 l/m 0,60 h 0,00 h 47 W/m 13,8 km/h (3 Bft) 92,24 %
30.10.2015 17:00 11,8 C 11,1 C 9,4 C 87 % 0 lf 1025,6 hPa 0,0 l/m 0,00 h 0,00 h 7 W/m 10,5 km/h (2 Bft) 98,21 %
30.10.2015 18:00 10,7 C 10,2 C 8,3 C 90 % 1 lf 1025,8 hPa 0,0 l/m 0,00 h 0,00 h 0 W/m 8,2 km/h (2 Bft) 96,06 %
30.10.2015 19:00 10,1 C 9,8 C 7,8 C 91 % 1 lf 1025,8 hPa 0,0 l/m 0,00 h 0,00 h 0 W/m 8,5 km/h (2 Bft) 96,08 %
30.10.2015 20:00 9,4 C 8,6 C 6,8 C 92 % 2 lf 1025,6 hPa 0,0 l/m 0,00 h 0,00 h 0 W/m 7,2 km/h (2 Bft) 95,44 %
30.10.2015 21:00 8,9 C 8,5 C 6,6 C 93 % 10 lf 1025,6 hPa 0,0 l/m 0,00 h 0,00 h 0 W/m 8,0 km/h (2 Bft) 96,94 %
30.10.2015 22:00 8,8 C 9,0 C 7,2 C 95 % 14 lf 1025,5 hPa 0,0 l/m 0,00 h 0,00 h 0 W/m 12,9 km/h (3 Bft) 95,66 %
30.10.2015 23:00 9,2 C 9,4 C 7,9 C 94 % 1 lf 1025,2 hPa 0,0 l/m 0,00 h 0,00 h 0 W/m 22,1 km/h (4 Bft) 98,22 %
31.10.2015 00:00 9,2 C 9,2 C 7,8 C 92 % 0 lf 1025,0 hPa 0,0 l/m 0,00 h 0,00 h 0 W/m 20,8 km/h (4 Bft) 93,58 %
31.10.2015 01:00 9,1 C 9,2 C 7,7 C 91 % 0 lf 1024,8 hPa 0,0 l/m 0,00 h 0,00 h 0 W/m 23,1 km/h (4 Bft) 97,15 %
31.10.2015 02:00 8,7 C 8,6 C 7,2 C 91 % 0 lf 1024,5 hPa 0,0 l/m 0,00 h 0,00 h 0 W/m 21,7 km/h (4 Bft) 97,22 %
31.10.2015 03:00 8,3 C 8,1 C 6,7 C 92 % 0 lf 1024,4 hPa 0,0 l/m 0,00 h 0,00 h 0 W/m 14,6 km/h (3 Bft) 95,79 %
31.10.2015 04:00 7,9 C 7,8 C 6,7 C 93 % 0 lf 1024,4 hPa 0,0 l/m 0,00 h 0,00 h 0 W/m 17,6 km/h (3 Bft) 94,06 %
31.10.2015 05:00 8,0 C 8,2 C 6,7 C 93 % 0 lf 1024,3 hPa 0,0 l/m 0,00 h 0,00 h 0 W/m 16,1 km/h (3 Bft) 97,86 %
31.10.2015 06:00 8,1 C 8,3 C 6,7 C 92 % 0 lf 1024,3 hPa 0,0 l/m 0,00 h 0,00 h 0 W/m 20,3 km/h (4 Bft) 95,96 %
31.10.2015 07:00 8,1 C 8,2 C 6,7 C 91 % 0 lf 1024,7 hPa 0,0 l/m 0,33 h 0,00 h 19 W/m 20,3 km/h (4 Bft) 96,47 %
31.10.2015 08:00 8,2 C 8,8 C 7,3 C 91 % 0 lf 1025,3 hPa 0,0 l/m 1,00 h 0,00 h 94 W/m 24,0 km/h (4 Bft) 94,24 %
31.10.2015 09:00 9,0 C 12,4 C 8,3 C 89 % 0 lf 1025,8 hPa 0,0 l/m 1,00 h 0,00 h 218 W/m 26,3 km/h (4 Bft) 97,10 %
31.10.2015 10:00 10,4 C 14,7 C 9,3 C 85 % 0 lf 1026,0 hPa 0,0 l/m 1,00 h 0,00 h 320 W/m 27,0 km/h (4 Bft) 95,94 %
31.10.2015 11:00 11,6 C 16,7 C 10,7 C 82 % 0 lf 1025,8 hPa 0,0 l/m 1,00 h 0,00 h 380 W/m 28,7 km/h (4 Bft) 96,87 %
31.10.2015 12:00 12,3 C 16,8 C 10,8 C 79 % 0 lf 1025,5 hPa 0,0 l/m 0,97 h 0,00 h 389 W/m 31,1 km/h (5 Bft) 95,15 %
31.10.2015 13:00 13,0 C 17,5 C 11,3 C 78 % 0 lf 1025,4 hPa 0,0 l/m 1,00 h 0,00 h 356 W/m 25,6 km/h (4 Bft) 95,72 %
31.10.2015 14:00 13,1 C 16,6 C 11,3 C 77 % 0 lf 1025,1 hPa 0,0 l/m 1,00 h 0,00 h 264 W/m 23,3 km/h (4 Bft) 98,08 %
31.10.2015 15:00 12,5 C 13,5 C 10,8 C 80 % 0 lf 1025,1 hPa 0,0 l/m 0,97 h 0,00 h 138 W/m 20,1 km/h (4 Bft) 96,89 %
31.10.2015 16:00 11,6 C 11,5 C 9,8 C 82 % 0 lf 1025,4 hPa 0,0 l/m 0,40 h 0,00 h 42 W/m 18,4 km/h (3 Bft) 94,94 %
31.10.2015 17:00 10,5 C 10,0 C 8,5 C 86 % 0 lf 1025,6 hPa 0,0 l/m 0,00 h 0,00 h 7 W/m 20,1 km/h (4 Bft) 96,51 %
31.10.2015 18:00 9,4 C 9,3 C 7,8 C 89 % 0 lf 1026,1 hPa 0,0 l/m 0,00 h 0,00 h 0 W/m 18,9 km/h (3 Bft) 96,21 %
31.10.2015 19:00 8,9 C 8,9 C 7,4 C 91 % 0 lf 1026,4 hPa 0,0 l/m 0,00 h 0,00 h 0 W/m 18,9 km/h (3 Bft) 95,58 %
31.10.2015 20:00 8,7 C 8,6 C 7,2 C 92 % 0 lf 1026,8 hPa 0,0 l/m 0,00 h 0,00 h 0 W/m 18,2 km/h (3 Bft) 95,44 %
31.10.2015 21:00 8,2 C 7,9 C 6,6 C 92 % 1 lf 1027,3 hPa 0,0 l/m 0,00 h 0,00 h 0 W/m 13,2 km/h (3 Bft) 97,72 %
31.10.2015 22:00 7,7 C 7,8 C 6,1 C 94 % 1 lf 1027,3 hPa 0,0 l/m 0,00 h 0,00 h 0 W/m 14,5 km/h (3 Bft) 95,87 %
31.10.2015 23:00 7,4 C 7,2 C 5,8 C 95 % 1 lf 1027,5 hPa 0,0 l/m 0,00 h 0,00 h 0 W/m 11,2 km/h (2 Bft) 95,66 %
01.11.2015 00:00 7,0 C 6,8 C 5,6 C 95 % 3 lf 1027,7 hPa 0,0 l/m 0,00 h 0,00 h 0 W/m 11,5 km/h (2 Bft) 90,54 %
01.11.2015 01:00 6,7 C 6,7 C 5,2 C 96 % 8 lf 1028,0 hPa 0,0 l/m 0,00 h 0,00 h 0 W/m 8,9 km/h (2 Bft) 97,94 %
01.11.2015 02:00 6,5 C 6,5 C 5,0 C 96 % 14 lf 1028,4 hPa 0,0 l/m 0,00 h 0,00 h 0 W/m 9,3 km/h (2 Bft) 95,94 %
01.11.2015 03:00 6,1 C 5,3 C 4,0 C 96 % 15 lf 1028,8 hPa 0,0 l/m 0,00 h 0,00 h 0 W/m 3,5 km/h (1 Bft) 95,01 %
01.11.2015 04:00 4,9 C 3,6 C 2,8 C 96 % 15 lf 1029,0 hPa 0,0 l/m 0,00 h 0,00 h 0 W/m 0,5 km/h (0 Bft) 96,94 %
01.11.2015 05:00 4,0 C 3,1 C 2,2 C 96 % 15 lf 1029,1 hPa 0,0 l/m 0,00 h 0,00 h 0 W/m 4,6 km/h (1 Bft) 95,73 %
01.11.2015 06:00 3,8 C 3,9 C 2,6 C 96 % 15 lf 1029,1 hPa 0,0 l/m 0,00 h 0,00 h 0 W/m 5,4 km/h (1 Bft) 95,98 %
01.11.2015 07:00 4,4 C 4,6 C 3,1 C 97 % 15 lf 1029,6 hPa 0,2 l/m 0,00 h 0,03 h 14 W/m 6,2 km/h (2 Bft) 97,36 %
01.11.2015 08:00 4,9 C 5,0 C 3,9 C 97 % 15 lf 1030,1 hPa 0,0 l/m 0,03 h 0,00 h 52 W/m 11,0 km/h (2 Bft) 94,02 %
01.11.2015 09:00 5,0 C 5,6 C 4,5 C 98 % 15 lf 1030,2 hPa 0,0 l/m 0,00 h 0,00 h 91 W/m 12,5 km/h (3 Bft) 95,59 %
01.11.2015 10:00 6,2 C 7,7 C 6,5 C 98 % 15 lf 1030,3 hPa 0,0 l/m 0,07 h 0,00 h 151 W/m 10,6 km/h (2 Bft) 98,22 %
01.11.2015 11:00 7,7 C 12,6 C 8,5 C 99 % 6 lf 1030,4 hPa 0,0 l/m 0,77 h 0,00 h 283 W/m 9,3 km/h (2 Bft) 93,95 %
01.11.2015 12:00 9,0 C 13,5 C 9,0 C 99 % 0 lf 1029,9 hPa 0,0 l/m 0,87 h 0,00 h 278 W/m 12,3 km/h (3 Bft) 96,17 %
01.11.2015 13:00 10,3 C 16,6 C 9,5 C 98 % 0 lf 1029,7 hPa 0,0 l/m 1,00 h 0,00 h 327 W/m 9,4 km/h (2 Bft) 98,79 %
01.11.2015 14:00 12,6 C 19,1 C 10,8 C 89 % 0 lf 1029,6 hPa 0,0 l/m 1,00 h 0,00 h 254 W/m 7,6 km/h (2 Bft) 93,94 %
01.11.2015 15:00 13,2 C 14,8 C 10,5 C 84 % 0 lf 1029,5 hPa 0,0 l/m 0,90 h 0,00 h 129 W/m 5,3 km/h (1 Bft) 96,80 %
01.11.2015 16:00 12,6 C 11,9 C 8,8 C 85 % 0 lf 1029,5 hPa 0,0 l/m 0,10 h 0,00 h 33 W/m 2,7 km/h (1 Bft) 94,51 %
01.11.2015 17:00 10,7 C 8,3 C 6,6 C 86 % 2 lf 1029,4 hPa 0,0 l/m 0,00 h 0,00 h 8 W/m 0,1 km/h (0 Bft) 94,80 %
01.11.2015 18:00 8,5 C 6,5 C 5,3 C 89 % 12 lf 1029,5 hPa 0,0 l/m 0,00 h 0,00 h 0 W/m 0,0 km/h (0 Bft) 98,82 %
01.11.2015 19:00 7,2 C 6,0 C 4,4 C 91 % 15 lf 1029,3 hPa 0,0 l/m 0,00 h 0,00 h 0 W/m 1,8 km/h (1 Bft) 94,74 %
01.11.2015 20:00 6,5 C 5,2 C 4,1 C 92 % 15 lf 1029,0 hPa 0,0 l/m 0,00 h 0,00 h 0 W/m 1,1 km/h (1 Bft) 97,22 %
01.11.2015 21:00 5,5 C 4,4 C 3,3 C 93 % 15 lf 1028,9 hPa 0,0 l/m 0,00 h 0,00 h 0 W/m 0,2 km/h (0 Bft) 95,37 %
01.11.2015 22:00 4,8 C 3,8 C 2,9 C 93 % 15 lf 1028,9 hPa 0,0 l/m 0,00 h 0,00 h 0 W/m 0,0 km/h (0 Bft) 96,01 %
01.11.2015 23:00 4,2 C 3,1 C 2,4 C 94 % 15 lf 1028,7 hPa 0,0 l/m 0,00 h 0,00 h 0 W/m 0,0 km/h (0 Bft) 96,51 %
Min-Datum _ 01.11.15 01.11.15 01.11.15 29.10.15 26.10.15 28.10.15 - - - - 26.10.15 01.11.15
_ Min-Zeit 06:18 05:08 04:48 14:18 10:44 15:04 - - - - 00:00 00:02
Minimum _ 3,5 C 2,8 C 2,2 C 66 % 0 lf 1008,8 hPa - - - - 0,0 km/h (0 Bft) 20,00 %
Max-Datum _ 27.10.15 29.10.15 29.10.15 26.10.15 26.10.15 01.11.15 27.10.15 26.10.15 29.10.15 29.10.15 31.10.15 26.10.15
_ Max-Zeit 14:46 12:12 11:24 09:46 00:00 10:56 07:14 08:16 02:24 13:04 12:12 01:08
Maximum _ 17,5 C 27,2 C 16,7 C 99 % 15 lf 1030,5 hPa 0,2 l/m 0,03 h 0,03 h 454 W/m 46,0 km/h
SO (6 Bft)
100,00 %
Durchschnitt _ 10,0 C 10,9 C 8,4 C 90 % 4 lf 1020,2 hPa #0,6 l/m #46:19 h #22 min. 173 W/m 12,9 km/h (3 Bft) 96,08 %
© 2015 W. Hausmann